Terre Haute International Hulman Field Terre Haute US
ICAO: KHUF
IATA: HUF
Category: Medium
Scheduled Services: No

Elevation: 589 ft
TransAlt. 18000 ft.

Airport Communications:
APP/DEP:119.8
ASOS:127.5
ATIS:127.5
GND:121.6
RACER OPS:143.55
RDO:122.2
TWR:118.3
UNICOM:122.95

KHUF Zoom In..

If you have problems with the map follow the link
https://www.worldairports.se/pages/airport.php?
ICAO=KHUF

Runways:

(A) RW 05 length 9020 ft width 150 ft
ILS 109.70 / hdg 49

(B) RW 14 length 7200 ft width 150 ft
---- / hdg 137

(C) RW 18 length 4000 ft width 150 ft
---- / hdg 182

(D) RW 23 length 9020 ft width 150 ft
---- / hdg 229

(E) RW 32 length 7200 ft width 150 ft
---- / hdg 317

(F) RW 36 length 4000 ft width 150 ft
---- / hdg 2

Location; KHUF
Day. 08 / Time. 04.53 Zulu
* Altimeter: 30.23
* Temperature: -01° c. -30.2°f.
* Wind from: 130° Speed 06 kn.
Dewpoint: -05° c.
Visibility: 10 Statute Miles.
Clouds: Clear (automated report).

KHUF 080453Z 13006KT 10SM CLR M01/M05 A3023 RMK AO2 SLP240 T10061050 400721061


Wind From 130°
Speed 06 kn.

 
 
jpsmedia worldairports.se 2019   terms of use